Airfield :
LOGIN :

Register | Disclaimer

   EN    FR    IT 

 










Legend :    VFR   Marginal VFR   IFR   Intensive IFR   Very Intensive IFR
Visi :
Ceiling :
>= 8 km
>= 3000ft
5 to 8 km
1000 to 3000 ft
1500m to 5 km
500 to 1000 ft
800 to 1500m
200 to 500 ft
< 800m
< 200 ft
Symbols :   Thunderstorms  Fog  Heavy snow  Heavy precipitations  Wind > 20 kt
SIGMETs :     Misc.  Thunderstorms  Icing  Turbulence  Mountain Waves  Volcanic Ashes






- Airport Elevation : 160 ft
- IATA code : LRT


LFRH - Lorient Lann Bihoue

CURRENT METAR :
  • 260830Z AUTO 28005KT 9999 FEW008 OVC056 10/09 Q1015 TEMPO 4900 -RA BKN005

EXPIRED METARs :
  • 260800Z AUTO 29004KT 9999 FEW015 OVC058 10/09 Q1016 TEMPO 4900 -RA BKN010
  • 260730Z AUTO 28005KT 9999 -DZ BKN017 BKN022 BKN049 10/09 Q1016 TEMPO 4900 -RA BKN010
  • 260700Z AUTO VRB03KT 9999 SCT021/// BKN029/// BKN041/// ///TCU 10/08 Q1016 BECMG NSC
  • 260630Z AUTO 28003KT 9999 FEW029 BKN058 OVC068 10/08 Q1016 NOSIG
  • 260600Z AUTO 28004KT 9999 FEW047 BKN056 OVC066 11/07 Q1016 NOSIG

TAF AMD TAF LFRH
Valid from the 26 at 07:00 until the 27 at 06:00 UTC


260700Z 2607/2706 31005KT 9999 SCT020 BKN035
TEMPO 2607/2613 4900 -RA BKN010
PROB40
TEMPO 2610/2612 BKN005
BECMG 2612/2614 01010G20KT
BECMG 2618/2620 31005KT



MET'MAP, your aeronautical weather chart ! - Copyright ORBIFLY December 2007 - Disclaimer

ORBIFLY MET'MAP TEAM :

Programming & Development : Alexandra Zaïnal
Concept & original design : Baudouin d'Aumeries
Assistance for programming : Marc-Olivier Méhu
Technical & hardware support : Manuel Goepfert

Contact : metmap@orbifly.com




SOURCES & CREDITS :

   NOAA